createdAt,value
2023-09-09T00:00:52.339Z,17.70
2023-09-09T00:03:21.121Z,17.68
2023-09-09T00:05:49.745Z,17.70
2023-09-09T00:08:18.053Z,17.68
2023-09-09T00:10:46.641Z,17.62
2023-09-09T00:13:15.769Z,17.57
2023-09-09T00:15:43.588Z,17.64
2023-09-09T00:18:11.582Z,17.64
2023-09-09T00:20:42.162Z,17.68
2023-09-09T00:23:10.759Z,17.67
2023-09-09T00:25:40.376Z,17.68
2023-09-09T00:28:09.279Z,17.69
2023-09-09T00:30:37.106Z,17.68
2023-09-09T00:33:05.558Z,17.71
2023-09-09T00:35:34.172Z,17.73
2023-09-09T00:38:02.265Z,17.80
2023-09-09T00:40:30.293Z,17.81
2023-09-09T00:42:58.728Z,17.84
2023-09-09T00:45:27.733Z,17.86
2023-09-09T00:47:57.204Z,17.88
2023-09-09T00:50:26.331Z,17.87
2023-09-09T00:52:53.988Z,17.88
2023-09-09T00:55:25.194Z,17.83
2023-09-09T00:57:52.836Z,17.85
2023-09-09T01:00:20.582Z,17.84
2023-09-09T01:02:48.570Z,17.88
2023-09-09T01:05:16.430Z,17.84
2023-09-09T01:07:47.349Z,17.86
2023-09-09T01:10:17.512Z,17.78
2023-09-09T01:12:45.429Z,17.81
2023-09-09T01:15:14.280Z,17.78
2023-09-09T01:17:42.932Z,17.76
2023-09-09T01:20:20.694Z,17.80
2023-09-09T01:22:50.069Z,17.75
2023-09-09T01:25:17.944Z,17.65
2023-09-09T01:27:46.582Z,17.61
2023-09-09T01:30:17.114Z,17.60
2023-09-09T01:32:44.781Z,17.60
2023-09-09T01:35:21.523Z,17.52
2023-09-09T01:37:51.343Z,17.51
2023-09-09T01:40:19.111Z,17.38
2023-09-09T01:42:48.861Z,17.25
2023-09-09T01:45:18.018Z,17.14
2023-09-09T01:47:46.390Z,17.12
2023-09-09T01:50:14.426Z,17.10
2023-09-09T01:52:42.491Z,17.04
2023-09-09T01:55:11.138Z,17.00
2023-09-09T01:57:40.897Z,16.98
2023-09-09T02:00:10.703Z,16.92
2023-09-09T02:02:40.579Z,16.85
2023-09-09T02:05:10.688Z,16.87
2023-09-09T02:07:38.477Z,16.86
2023-09-09T02:10:06.436Z,16.85
2023-09-09T02:12:35.344Z,16.89
2023-09-09T02:15:03.236Z,16.81
2023-09-09T02:17:33.287Z,16.70
2023-09-09T02:20:00.949Z,16.73
2023-09-09T02:22:30.380Z,16.61
2023-09-09T02:24:58.319Z,16.60
2023-09-09T02:27:26.467Z,16.64
2023-09-09T02:29:54.592Z,16.61
2023-09-09T02:32:22.890Z,16.58
2023-09-09T02:34:51.951Z,16.55
2023-09-09T02:37:22.371Z,16.50
2023-09-09T02:39:52.161Z,16.50
2023-09-09T02:42:21.653Z,16.55
2023-09-09T02:44:53.285Z,16.59
2023-09-09T02:47:21.715Z,16.60
2023-09-09T02:49:51.686Z,16.59
2023-09-09T02:52:22.123Z,16.53
2023-09-09T02:54:50.061Z,16.27
2023-09-09T02:57:19.141Z,16.33
2023-09-09T02:59:47.299Z,16.37
2023-09-09T03:02:15.606Z,16.40
2023-09-09T03:04:43.712Z,16.43
2023-09-09T03:07:12.141Z,16.42
2023-09-09T03:09:42.524Z,16.41
2023-09-09T03:12:10.446Z,16.38
2023-09-09T03:14:38.514Z,16.34
2023-09-09T03:17:06.585Z,16.33
2023-09-09T03:19:35.559Z,16.30
2023-09-09T03:22:03.556Z,16.34
2023-09-09T03:24:31.499Z,16.42
2023-09-09T03:26:59.321Z,16.37
2023-09-09T03:29:27.953Z,16.36
2023-09-09T03:31:56.078Z,16.34
2023-09-09T03:34:23.737Z,16.33
2023-09-09T03:36:51.684Z,16.36
2023-09-09T03:39:19.353Z,16.33
2023-09-09T03:41:49.540Z,16.27
2023-09-09T03:44:17.673Z,16.22
2023-09-09T03:46:45.584Z,16.21
2023-09-09T03:49:17.080Z,16.17
2023-09-09T03:51:45.936Z,16.13
2023-09-09T03:54:13.641Z,16.04
2023-09-09T03:56:41.323Z,15.83
2023-09-09T03:59:09.333Z,15.82
2023-09-09T04:01:37.918Z,15.70
2023-09-09T04:04:08.686Z,15.70
2023-09-09T04:06:36.783Z,15.69
2023-09-09T04:09:04.776Z,15.73
2023-09-09T04:11:33.319Z,15.66
2023-09-09T04:14:01.137Z,15.63
2023-09-09T04:16:29.421Z,15.61
2023-09-09T04:18:57.594Z,15.48
2023-09-09T04:21:25.430Z,15.41
2023-09-09T04:23:53.117Z,15.35
2023-09-09T04:26:21.083Z,15.42
2023-09-09T04:28:49.168Z,15.56
2023-09-09T04:31:17.308Z,15.61
2023-09-09T04:33:45.784Z,15.56
2023-09-09T04:36:14.270Z,15.67
2023-09-09T04:38:42.947Z,15.82
2023-09-09T04:41:11.303Z,16.10
2023-09-09T04:43:39.775Z,16.18
2023-09-09T04:46:08.046Z,16.29
2023-09-09T04:48:36.734Z,16.39
2023-09-09T04:51:04.584Z,16.48
2023-09-09T04:53:32.374Z,16.58
2023-09-09T04:56:01.898Z,16.75
2023-09-09T04:58:31.644Z,16.91
2023-09-09T05:01:01.653Z,17.04
2023-09-09T05:03:30.587Z,17.18
2023-09-09T05:05:59.393Z,17.32
2023-09-09T05:08:27.414Z,17.46
2023-09-09T05:10:57.618Z,17.60
2023-09-09T05:13:27.128Z,17.77
2023-09-09T05:15:55.665Z,17.92
2023-09-09T05:18:23.482Z,18.04
2023-09-09T05:20:51.507Z,18.12
2023-09-09T05:23:20.147Z,18.21
2023-09-09T05:25:48.747Z,18.30
2023-09-09T05:28:16.422Z,18.39
2023-09-09T05:30:44.568Z,18.48
2023-09-09T05:33:12.639Z,18.58
2023-09-09T05:35:40.329Z,18.66
2023-09-09T05:38:08.323Z,18.73
2023-09-09T05:40:36.122Z,18.84
2023-09-09T05:43:03.994Z,19.01
2023-09-09T05:45:31.949Z,19.19
2023-09-09T05:48:00.785Z,19.33
2023-09-09T05:50:30.830Z,19.48
2023-09-09T05:53:01.836Z,19.45
2023-09-09T05:55:31.278Z,19.65
2023-09-09T05:57:59.504Z,19.77
2023-09-09T06:00:27.165Z,19.97
2023-09-09T06:02:55.173Z,20.10
2023-09-09T06:05:22.873Z,20.38
2023-09-09T06:07:52.912Z,21.02
2023-09-09T06:10:21.720Z,23.62
2023-09-09T06:12:49.991Z,26.42
2023-09-09T06:15:18.057Z,28.79
2023-09-09T06:17:46.502Z,30.52
2023-09-09T06:20:15.366Z,31.70
2023-09-09T06:22:43.373Z,32.79
2023-09-09T06:25:11.774Z,33.32
2023-09-09T06:27:39.447Z,33.63
2023-09-09T06:30:07.776Z,34.00
2023-09-09T06:32:36.332Z,34.09
2023-09-09T06:35:06.651Z,34.70
2023-09-09T06:37:34.532Z,35.32
2023-09-09T06:40:02.575Z,35.77
2023-09-09T06:42:33.178Z,36.08
2023-09-09T06:45:05.375Z,36.20
2023-09-09T06:47:34.033Z,35.43
2023-09-09T06:50:04.273Z,34.71
2023-09-09T06:52:32.607Z,31.85
2023-09-09T06:55:00.560Z,33.89
2023-09-09T06:57:28.238Z,32.69
2023-09-09T06:59:55.984Z,30.75
2023-09-09T07:02:25.775Z,31.11
2023-09-09T07:04:54.776Z,30.33
2023-09-09T07:07:23.299Z,29.08
2023-09-09T07:09:53.427Z,31.98
2023-09-09T07:12:21.183Z,31.73
2023-09-09T07:14:48.952Z,30.24
2023-09-09T07:17:16.881Z,32.44
2023-09-09T07:19:44.527Z,32.80
2023-09-09T07:22:12.173Z,31.12
2023-09-09T07:24:40.165Z,29.17
2023-09-09T07:27:07.906Z,30.83
2023-09-09T07:29:35.575Z,29.98
2023-09-09T07:32:04.204Z,31.61
2023-09-09T07:34:31.905Z,29.45
2023-09-09T07:37:03.585Z,30.64
2023-09-09T07:39:45.880Z,31.13
2023-09-09T07:42:16.960Z,30.06
2023-09-09T07:44:45.549Z,28.66
2023-09-09T07:47:13.091Z,30.09
2023-09-09T07:49:40.950Z,30.22
2023-09-09T07:52:10.033Z,29.44
2023-09-09T07:54:37.772Z,29.44
2023-09-09T07:57:07.222Z,31.11
2023-09-09T07:59:34.600Z,32.09
2023-09-09T08:02:04.046Z,31.94
2023-09-09T08:04:33.079Z,31.95
2023-09-09T08:07:03.193Z,30.77
2023-09-09T08:09:38.087Z,28.51
2023-09-09T08:12:08.167Z,30.21
2023-09-09T08:14:35.415Z,30.22
2023-09-09T08:17:05.588Z,31.10
2023-09-09T08:19:33.464Z,31.83
2023-09-09T08:22:02.722Z,31.03
2023-09-09T08:24:29.893Z,31.50
2023-09-09T08:26:58.136Z,31.39
2023-09-09T08:29:28.329Z,30.38
2023-09-09T08:31:55.606Z,29.77
2023-09-09T08:34:23.180Z,31.09
2023-09-09T08:36:50.430Z,31.51
2023-09-09T08:39:20.625Z,30.46
2023-09-09T08:42:37.088Z,30.13
2023-09-09T08:45:31.852Z,30.42
2023-09-09T08:48:00.550Z,30.06
2023-09-09T08:50:31.053Z,30.19
2023-09-09T08:53:03.787Z,30.80
2023-09-09T08:55:33.169Z,30.57
2023-09-09T08:58:00.584Z,30.03
2023-09-09T09:00:34.689Z,30.38
2023-09-09T09:03:03.365Z,28.60
2023-09-09T09:05:33.637Z,28.81
2023-09-09T09:08:02.108Z,29.35
2023-09-09T09:10:29.704Z,29.68
2023-09-09T09:12:57.863Z,29.16
2023-09-09T09:15:26.026Z,29.55
2023-09-09T09:17:55.818Z,29.26
2023-09-09T09:20:29.709Z,29.89
2023-09-09T09:23:00.210Z,29.86
2023-09-09T09:25:30.794Z,30.77
2023-09-09T09:27:59.072Z,30.49
2023-09-09T09:30:30.423Z,30.43
2023-09-09T09:32:58.521Z,30.43
2023-09-09T09:35:30.817Z,31.00
2023-09-09T09:41:28.301Z,30.24
2023-09-09T09:43:56.298Z,30.54
2023-09-09T09:46:24.157Z,30.00
2023-09-09T09:48:52.158Z,29.67
2023-09-09T09:51:20.243Z,30.07
2023-09-09T09:53:50.396Z,30.09
2023-09-09T09:56:21.198Z,29.83
2023-09-09T09:58:51.452Z,29.01
2023-09-09T10:01:19.438Z,28.62
2023-09-09T10:03:50.200Z,28.19
2023-09-09T10:06:22.273Z,28.00
2023-09-09T10:08:58.391Z,27.78
2023-09-09T10:11:30.297Z,28.52
2023-09-09T10:14:07.980Z,28.10
2023-09-09T10:16:36.919Z,28.14
2023-09-09T10:19:05.226Z,28.10
2023-09-09T10:21:41.913Z,28.55
2023-09-09T10:24:13.407Z,28.31
2023-09-09T10:26:41.317Z,28.09
2023-09-09T10:29:11.662Z,28.31
2023-09-09T10:31:44.863Z,28.32
2023-09-09T10:34:17.866Z,28.52
2023-09-09T10:36:59.504Z,28.46
2023-09-09T10:39:29.514Z,28.16
2023-09-09T10:41:59.098Z,28.76
2023-09-09T10:44:39.526Z,29.02
2023-09-09T10:47:09.998Z,29.16
2023-09-09T10:49:41.237Z,29.20
2023-09-09T10:52:39.586Z,29.33
2023-09-09T10:58:35.000Z,28.85
2023-09-09T11:01:31.925Z,28.98
2023-09-09T11:04:23.450Z,29.18
2023-09-09T11:07:10.424Z,29.33
2023-09-09T11:09:38.822Z,29.40
2023-09-09T11:12:16.580Z,29.43
2023-09-09T11:14:49.489Z,29.55
2023-09-09T11:20:49.508Z,29.40
2023-09-09T11:26:49.569Z,28.91
2023-09-09T11:29:30.127Z,28.85
2023-09-09T11:32:04.469Z,28.91
2023-09-09T11:34:34.438Z,29.11
2023-09-09T11:37:03.176Z,28.97
2023-09-09T11:39:31.630Z,28.78
2023-09-09T11:42:02.591Z,28.72
2023-09-09T11:44:37.963Z,28.62
2023-09-09T11:47:09.134Z,29.08
2023-09-09T11:49:39.640Z,29.36
2023-09-09T11:52:07.283Z,29.74
2023-09-09T11:54:38.383Z,29.94
2023-09-09T11:57:07.322Z,29.98
2023-09-09T12:00:08.101Z,30.14
2023-09-09T12:02:41.132Z,30.27
2023-09-09T12:05:10.434Z,30.40
2023-09-09T12:07:38.266Z,30.40
2023-09-09T12:10:10.161Z,30.40
2023-09-09T12:12:39.462Z,30.35
2023-09-09T12:15:07.271Z,30.32
2023-09-09T12:17:38.192Z,30.34
2023-09-09T12:20:11.909Z,30.35
2023-09-09T12:22:51.346Z,30.13
2023-09-09T12:25:34.013Z,30.10
2023-09-09T12:28:01.881Z,30.23
2023-09-09T12:30:40.609Z,30.15
2023-09-09T12:33:08.905Z,30.23
2023-09-09T12:35:44.238Z,30.31
2023-09-09T12:38:12.662Z,29.57
2023-09-09T12:40:49.382Z,29.45
2023-09-09T12:43:23.104Z,29.44
2023-09-09T12:45:53.230Z,29.17
2023-09-09T12:48:21.798Z,29.44
2023-09-09T12:50:56.895Z,29.51
2023-09-09T12:53:32.308Z,29.38
2023-09-09T12:56:01.847Z,29.72
2023-09-09T12:58:32.806Z,29.89
2023-09-09T13:04:29.857Z,29.93
2023-09-09T13:07:00.945Z,29.85
2023-09-09T13:09:29.474Z,29.92
2023-09-09T13:11:57.202Z,29.96
2023-09-09T13:14:26.945Z,30.04
2023-09-09T13:16:55.680Z,30.10
2023-09-09T13:19:26.676Z,30.25
2023-09-09T13:21:57.070Z,30.06
2023-09-09T13:24:28.615Z,29.91
2023-09-09T13:26:56.308Z,29.92
2023-09-09T13:29:26.018Z,29.86
2023-09-09T13:31:56.559Z,29.93
2023-09-09T13:34:32.705Z,29.82
2023-09-09T13:37:01.176Z,29.83
2023-09-09T13:39:30.715Z,29.86
2023-09-09T13:42:00.859Z,30.05
2023-09-09T13:44:33.015Z,30.21
2023-09-09T13:47:00.946Z,30.10
2023-09-09T13:49:28.598Z,30.10
2023-09-09T13:51:56.640Z,30.16
2023-09-09T13:54:24.718Z,30.23
2023-09-09T13:56:55.591Z,29.89
2023-09-09T13:59:23.286Z,29.86
2023-09-09T14:01:51.362Z,29.87
2023-09-09T14:04:19.503Z,29.40
2023-09-09T14:06:47.323Z,29.35
2023-09-09T14:09:15.055Z,29.61
2023-09-09T14:11:42.493Z,29.78
2023-09-09T14:14:11.341Z,29.83
2023-09-09T14:16:39.015Z,30.04
2023-09-09T14:19:08.976Z,29.93
2023-09-09T14:21:38.865Z,29.98
2023-09-09T14:24:07.248Z,30.03
2023-09-09T14:26:35.004Z,30.01
2023-09-09T14:29:06.307Z,30.09
2023-09-09T14:31:34.256Z,30.12
2023-09-09T14:34:02.018Z,30.09
2023-09-09T14:36:30.823Z,29.94
2023-09-09T14:39:01.595Z,29.90
2023-09-09T14:41:31.706Z,29.76
2023-09-09T14:43:59.750Z,29.87
2023-09-09T14:46:28.729Z,29.94
2023-09-09T14:49:03.196Z,30.11
2023-09-09T14:51:33.862Z,29.98
2023-09-09T14:54:04.660Z,29.91
2023-09-09T14:56:33.520Z,29.98
2023-09-09T14:59:01.612Z,29.87
2023-09-09T15:01:29.390Z,29.85
2023-09-09T15:04:00.398Z,29.87
2023-09-09T15:06:28.064Z,29.85
2023-09-09T15:08:56.441Z,29.93
2023-09-09T15:11:25.360Z,29.94
2023-09-09T15:13:53.393Z,29.95
2023-09-09T15:16:22.434Z,29.96
2023-09-09T15:18:50.580Z,29.91
2023-09-09T15:21:18.325Z,29.89
2023-09-09T15:23:46.340Z,29.87
2023-09-09T15:26:14.298Z,29.83
2023-09-09T15:28:42.154Z,29.86
2023-09-09T15:31:10.244Z,29.76
2023-09-09T15:33:38.097Z,29.70
2023-09-09T15:36:18.963Z,29.77
2023-09-09T15:38:47.047Z,29.79
2023-09-09T15:41:14.686Z,29.78
2023-09-09T15:43:47.458Z,29.79
2023-09-09T15:46:15.891Z,29.70
2023-09-09T15:48:43.672Z,29.62
2023-09-09T15:51:11.506Z,29.59
2023-09-09T15:53:40.722Z,29.60
2023-09-09T15:56:12.775Z,29.51
2023-09-09T15:58:43.138Z,29.43
2023-09-09T16:04:42.090Z,29.41
2023-09-09T16:07:10.867Z,29.42
2023-09-09T16:09:39.509Z,29.31
2023-09-09T16:12:07.622Z,29.32
2023-09-09T16:14:35.569Z,29.34
2023-09-09T16:17:04.562Z,29.37
2023-09-09T16:19:32.334Z,29.15
2023-09-09T16:22:00.375Z,28.97
2023-09-09T16:24:28.020Z,29.08
2023-09-09T16:26:55.706Z,28.94
2023-09-09T16:29:23.130Z,28.84
2023-09-09T16:31:51.484Z,28.67
2023-09-09T16:34:19.643Z,28.43
2023-09-09T16:36:48.369Z,28.26
2023-09-09T16:39:16.103Z,28.13
2023-09-09T16:41:43.926Z,28.12
2023-09-09T16:44:12.039Z,27.94
2023-09-09T16:46:40.411Z,27.77
2023-09-09T16:49:08.293Z,27.81
2023-09-09T16:51:36.356Z,27.68
2023-09-09T16:54:04.164Z,27.56
2023-09-09T16:56:32.759Z,27.40
2023-09-09T16:59:01.670Z,27.14
2023-09-09T17:01:28.879Z,26.98
2023-09-09T17:03:56.167Z,27.11
2023-09-09T17:06:24.674Z,26.92
2023-09-09T17:08:52.079Z,26.60
2023-09-09T17:11:19.356Z,26.43
2023-09-09T17:13:46.843Z,26.20
2023-09-09T17:16:14.036Z,26.03
2023-09-09T17:18:41.196Z,25.95
2023-09-09T17:21:11.765Z,25.98
2023-09-09T17:23:39.282Z,25.74
2023-09-09T17:26:08.732Z,25.70
2023-09-09T17:28:36.836Z,25.47
2023-09-09T17:31:04.693Z,25.28
2023-09-09T17:33:31.829Z,25.18
2023-09-09T17:36:00.017Z,25.27
2023-09-09T17:38:27.264Z,25.14
2023-09-09T17:40:54.413Z,25.12
2023-09-09T17:43:22.941Z,25.00
2023-09-09T17:45:52.916Z,25.04
2023-09-09T17:48:20.095Z,24.91
2023-09-09T17:50:47.831Z,24.75
2023-09-09T17:53:17.655Z,24.68
2023-09-09T17:55:45.052Z,24.61
2023-09-09T17:58:14.881Z,24.48
2023-09-09T18:00:42.826Z,24.30
2023-09-09T18:03:13.517Z,24.32
2023-09-09T18:05:40.817Z,24.20
2023-09-09T18:08:08.799Z,24.12
2023-09-09T18:10:36.867Z,23.96
2023-09-09T18:13:04.319Z,23.89
2023-09-09T18:15:37.152Z,23.86
2023-09-09T18:18:07.191Z,23.68
2023-09-09T18:20:36.440Z,23.52
2023-09-09T18:23:05.105Z,23.34
2023-09-09T18:25:33.700Z,23.15
2023-09-09T18:28:03.359Z,23.06
2023-09-09T18:30:40.209Z,23.20
2023-09-09T18:33:08.710Z,23.11
2023-09-09T18:35:36.999Z,22.95
2023-09-09T18:38:05.498Z,23.06
2023-09-09T18:40:34.914Z,23.04
2023-09-09T18:43:03.962Z,23.00
2023-09-09T18:45:32.069Z,22.87
2023-09-09T18:48:03.643Z,22.93
2023-09-09T18:50:31.451Z,22.97
2023-09-09T18:53:03.221Z,22.93
2023-09-09T18:55:35.413Z,22.69
2023-09-09T18:58:04.078Z,22.58
2023-09-09T19:00:32.640Z,22.62
2023-09-09T19:03:01.997Z,22.68
2023-09-09T19:05:33.603Z,22.60
2023-09-09T19:08:06.787Z,22.51
2023-09-09T19:10:37.286Z,22.45
2023-09-09T19:13:07.543Z,22.33
2023-09-09T19:15:36.415Z,22.35
2023-09-09T19:18:08.569Z,22.31
2023-09-09T19:20:40.758Z,22.21
2023-09-09T19:23:08.927Z,22.17
2023-09-09T19:25:39.113Z,22.13
2023-09-09T19:28:12.859Z,22.04
2023-09-09T19:30:48.729Z,21.95
2023-09-09T19:33:22.678Z,21.88
2023-09-09T19:35:52.363Z,21.88
2023-09-09T19:38:22.585Z,21.93
2023-09-09T19:40:53.272Z,21.93
2023-09-09T19:43:24.245Z,21.93
2023-09-09T19:45:58.044Z,21.91
2023-09-09T19:48:28.946Z,21.90
2023-09-09T19:50:58.087Z,21.73
2023-09-09T19:53:26.295Z,21.77
2023-09-09T19:55:55.523Z,21.77
2023-09-09T19:58:26.308Z,21.66
2023-09-09T20:00:55.148Z,21.66
2023-09-09T20:03:28.862Z,21.65
2023-09-09T20:05:58.506Z,21.49
2023-09-09T20:08:29.265Z,21.50
2023-09-09T20:10:57.974Z,21.43
2023-09-09T20:13:26.705Z,21.43
2023-09-09T20:15:56.906Z,21.29
2023-09-09T20:18:25.388Z,21.28
2023-09-09T20:20:54.789Z,20.99
2023-09-09T20:23:23.795Z,20.88
2023-09-09T20:25:52.528Z,20.83
2023-09-09T20:28:21.267Z,20.78
2023-09-09T20:30:49.734Z,20.65
2023-09-09T20:33:20.826Z,20.61
2023-09-09T20:35:51.218Z,20.57
2023-09-09T20:38:19.900Z,20.59
2023-09-09T20:40:48.392Z,20.63
2023-09-09T20:43:17.972Z,20.52
2023-09-09T20:45:46.832Z,20.54
2023-09-09T20:48:17.213Z,20.49
2023-09-09T20:50:45.253Z,20.40
2023-09-09T20:53:13.026Z,20.26
2023-09-09T20:55:41.497Z,20.28
2023-09-09T20:58:09.777Z,20.25
2023-09-09T21:00:40.371Z,20.28
2023-09-09T21:03:07.650Z,20.29
2023-09-09T21:05:34.984Z,20.31
2023-09-09T21:08:02.553Z,20.21
2023-09-09T21:10:29.828Z,20.21
2023-09-09T21:12:59.690Z,20.18
2023-09-09T21:15:27.081Z,20.04
2023-09-09T21:17:56.732Z,20.06
2023-09-09T21:20:23.991Z,20.08
2023-09-09T21:22:51.510Z,20.05
2023-09-09T21:25:31.491Z,20.03
2023-09-09T21:27:59.666Z,19.94
2023-09-09T21:30:28.325Z,19.90
2023-09-09T21:32:55.785Z,19.74
2023-09-09T21:35:23.301Z,19.62
2023-09-09T21:37:50.660Z,19.45
2023-09-09T21:43:52.090Z,19.30
2023-09-09T21:46:20.217Z,19.29
2023-09-09T21:48:48.777Z,19.26
2023-09-09T21:51:16.539Z,19.22
2023-09-09T21:53:44.530Z,19.22
2023-09-09T21:56:12.152Z,19.13
2023-09-09T21:58:39.988Z,19.08
2023-09-09T22:01:12.915Z,19.03
2023-09-09T22:03:41.195Z,19.07
2023-09-09T22:06:09.023Z,19.08
2023-09-09T22:08:36.972Z,19.00
2023-09-09T22:11:06.998Z,19.05
2023-09-09T22:13:35.137Z,18.88
2023-09-09T22:16:08.631Z,18.87
2023-09-09T22:18:37.627Z,18.74
2023-09-09T22:21:09.065Z,18.72
2023-09-09T22:23:37.611Z,18.70
2023-09-09T22:26:29.962Z,18.66
2023-09-09T22:28:58.417Z,18.66
2023-09-09T22:31:26.268Z,18.59
2023-09-09T22:33:54.312Z,18.57
2023-09-09T22:36:25.507Z,18.45
2023-09-09T22:38:58.042Z,18.50
2023-09-09T22:41:26.062Z,18.49
2023-09-09T22:43:53.783Z,18.52
2023-09-09T22:49:53.945Z,18.52
2023-09-09T22:52:21.616Z,18.53
2023-09-09T22:54:49.042Z,18.47
2023-09-09T22:57:16.762Z,18.45
2023-09-09T22:59:44.499Z,18.43
2023-09-09T23:02:11.779Z,18.42
2023-09-09T23:04:39.065Z,18.48
2023-09-09T23:07:06.586Z,18.34
2023-09-09T23:09:33.972Z,18.33
2023-09-09T23:12:01.379Z,18.37
2023-09-09T23:14:28.792Z,18.36
2023-09-09T23:16:56.059Z,18.33
2023-09-09T23:19:23.274Z,18.27
2023-09-09T23:21:50.679Z,18.24
2023-09-09T23:24:17.791Z,18.23
2023-09-09T23:26:44.906Z,18.22
2023-09-09T23:29:13.345Z,18.20
2023-09-09T23:31:40.753Z,18.11
2023-09-09T23:34:07.969Z,18.07
2023-09-09T23:36:35.393Z,18.03
2023-09-09T23:39:07.543Z,17.93
2023-09-09T23:41:34.991Z,17.86
2023-09-09T23:44:02.769Z,17.89
2023-09-09T23:46:31.320Z,17.96
2023-09-09T23:48:59.260Z,17.83
2023-09-09T23:51:27.482Z,17.79
2023-09-09T23:53:55.195Z,17.68
2023-09-09T23:56:22.838Z,17.55
2023-09-09T23:58:50.336Z,17.62
